Time;durP1;ratioP1;P1;durP2;ratioP2;P2;SDS_P1;SDS_P2;PMS_P1;PMS_P2;Temp;Humidity;BMP_temperature;BMP_pressure;BME280_temperature;BME280_humidity;BME280_pressure;Samples;Min_cycle;Max_cycle;Signal;HPM_P1;HPM_P2
2022/03/25 00:00:40;;;;;;;14.53;12.90;;;15.60;35.20;;;;;;5049995;28;20655;-43
2022/03/25 00:03:06;;;;;;;17.23;13.80;;;15.70;35.10;;;;;;5048670;28;20450;-44
2022/03/25 00:05:32;;;;;;;20.13;14.40;;;15.70;35.10;;;;;;5045923;28;20439;-44
2022/03/25 00:07:58;;;;;;;17.23;13.37;;;15.80;35.10;;;;;;5045559;28;20196;-44
2022/03/25 00:10:23;;;;;;;16.67;13.80;;;15.80;35.00;;;;;;5041604;28;20243;-43
2022/03/25 00:12:49;;;;;;;17.20;13.50;;;15.80;34.70;;;;;;5049192;28;20224;-43
2022/03/25 00:15:16;;;;;;;15.87;13.70;;;15.70;34.80;;;;;;5048865;28;20239;-44
2022/03/25 00:17:41;;;;;;;16.33;12.17;;;15.70;34.80;;;;;;5048439;28;20307;-43
2022/03/25 00:20:07;;;;;;;12.57;11.13;;;15.70;34.90;;;;;;5043154;28;20529;-44
2022/03/25 00:22:34;;;;;;;17.57;12.93;;;15.70;35.10;;;;;;5037657;28;22374;-44
2022/03/25 00:25:00;;;;;;;16.83;13.10;;;15.70;35.00;;;;;;5045937;28;20529;-45
2022/03/25 00:27:25;;;;;;;16.17;12.93;;;15.60;35.10;;;;;;5047584;28;20514;-45
2022/03/25 00:29:51;;;;;;;16.33;13.00;;;15.50;35.10;;;;;;5047539;28;20196;-44
2022/03/25 00:32:16;;;;;;;16.77;12.60;;;15.40;35.20;;;;;;5049610;28;20192;-45
2022/03/25 00:34:43;;;;;;;13.90;12.27;;;15.20;35.40;;;;;;5046108;28;20252;-46
2022/03/25 00:37:10;;;;;;;16.23;13.60;;;15.10;36.00;;;;;;5050276;28;20193;-46
2022/03/25 00:39:36;;;;;;;14.60;13.03;;;15.10;36.00;;;;;;5052122;28;20867;-48
2022/03/25 00:42:02;;;;;;;17.30;12.43;;;15.20;35.80;;;;;;5040652;28;20541;-45
2022/03/25 00:44:28;;;;;;;16.17;12.40;;;15.20;35.60;;;;;;5048236;28;20200;-44
2022/03/25 00:46:54;;;;;;;16.03;12.37;;;15.10;35.50;;;;;;5041805;28;20439;-45
2022/03/25 00:49:19;;;;;;;16.27;12.40;;;15.10;35.80;;;;;;5042246;28;20655;-45
2022/03/25 00:51:46;;;;;;;13.40;11.77;;;15.10;35.80;;;;;;5044469;28;20184;-45
2022/03/25 00:54:12;;;;;;;13.37;12.03;;;15.00;35.70;;;;;;5046360;28;20319;-44
2022/03/25 00:56:38;;;;;;;16.13;12.00;;;15.00;36.10;;;;;;5045719;28;20522;-44
2022/03/25 00:59:04;;;;;;;14.13;12.23;;;14.90;36.80;;;;;;5049513;28;20489;-45
2022/03/25 01:01:30;;;;;;;15.73;13.67;;;15.00;37.10;;;;;;5043996;28;20810;-45
2022/03/25 01:03:55;;;;;;;13.97;12.47;;;15.10;36.30;;;;;;5046016;28;20537;-49
2022/03/25 01:06:21;;;;;;;14.40;12.70;;;15.10;36.00;;;;;;5044052;28;20250;-45
2022/03/25 01:08:47;;;;;;;14.83;12.67;;;15.10;36.00;;;;;;5043745;28;20196;-43
2022/03/25 01:11:13;;;;;;;15.90;14.00;;;15.20;36.10;;;;;;5041545;28;20201;-46
2022/03/25 01:13:38;;;;;;;17.67;11.23;;;15.10;36.30;;;;;;5055623;28;21091;-45
2022/03/25 01:16:06;;;;;;;16.30;12.17;;;14.90;36.80;;;;;;5050872;28;20196;-45
2022/03/25 01:18:31;;;;;;;14.70;12.87;;;14.80;37.20;;;;;;5044640;28;20199;-44
2022/03/25 01:20:57;;;;;;;14.43;12.17;;;14.70;37.60;;;;;;5042799;28;20443;-47
2022/03/25 01:23:24;;;;;;;15.83;12.00;;;14.60;37.70;;;;;;5040702;28;20236;-46
2022/03/25 01:25:50;;;;;;;14.03;11.57;;;14.60;37.80;;;;;;5026514;28;20503;-44
2022/03/25 01:28:16;;;;;;;13.83;12.33;;;14.50;37.70;;;;;;5028298;28;20478;-47
2022/03/25 01:30:42;;;;;;;14.63;11.50;;;14.60;37.70;;;;;;5027352;28;20908;-47
2022/03/25 01:33:08;;;;;;;12.50;10.43;;;14.60;37.40;;;;;;5026113;28;20679;-44
2022/03/25 01:35:33;;;;;;;14.10;12.40;;;14.50;38.50;;;;;;5029575;28;20456;-45
2022/03/25 01:37:59;;;;;;;14.30;11.77;;;14.50;37.90;;;;;;5029555;28;20592;-43
2022/03/25 01:40:24;;;;;;;13.60;10.77;;;14.50;38.00;;;;;;5029925;28;20269;-45
2022/03/25 01:42:50;;;;;;;18.77;11.47;;;14.60;37.60;;;;;;5030946;28;20633;-46
2022/03/25 01:45:32;;;;;;;14.13;12.37;;;14.50;37.80;;;;;;5028984;28;20236;-43
2022/03/25 01:47:59;;;;;;;15.00;11.50;;;14.70;37.50;;;;;;5023844;28;20192;-43
2022/03/25 01:50:25;;;;;;;14.13;11.50;;;14.80;36.90;;;;;;5029080;28;20444;-46
2022/03/25 01:52:52;;;;;;;15.77;12.47;;;14.90;36.50;;;;;;5031307;28;20515;-44
2022/03/25 01:55:27;;;;;;;15.77;12.50;;;14.90;36.50;;;;;;5028790;28;20501;-48
2022/03/25 01:57:57;;;;;;;16.67;12.60;;;14.80;36.70;;;;;;5028631;28;20513;-46
2022/03/25 02:00:24;;;;;;;16.50;12.23;;;14.80;36.90;;;;;;5028530;28;20446;-43
2022/03/25 02:02:50;;;;;;;12.80;11.37;;;14.70;36.70;;;;;;5026206;28;20455;-46
2022/03/25 02:05:17;;;;;;;17.33;13.00;;;14.70;36.60;;;;;;5024606;28;20440;-47
2022/03/25 02:07:43;;;;;;;14.13;11.70;;;14.70;36.50;;;;;;5029367;28;20965;-45
2022/03/25 02:10:09;;;;;;;15.33;12.30;;;14.70;36.30;;;;;;5028234;28;20447;-47
2022/03/25 02:12:39;;;;;;;15.57;11.97;;;14.60;36.30;;;;;;5030363;28;20193;-44
2022/03/25 02:15:05;;;;;;;14.87;11.73;;;14.50;36.60;;;;;;5025817;28;20826;-43
2022/03/25 02:17:32;;;;;;;13.73;11.50;;;14.40;36.80;;;;;;5024835;28;20467;-45
2022/03/25 02:19:57;;;;;;;13.27;11.90;;;14.40;36.80;;;;;;5027755;28;20553;-45
2022/03/25 02:22:23;;;;;;;14.97;11.83;;;14.40;36.80;;;;;;5020698;28;20478;-44
2022/03/25 02:24:49;;;;;;;16.47;12.90;;;14.40;37.00;;;;;;5045805;28;20303;-44
2022/03/25 02:27:16;;;;;;;14.90;12.20;;;14.40;36.70;;;;;;5047046;28;20458;-45
2022/03/25 02:29:42;;;;;;;11.97;10.60;;;14.40;36.90;;;;;;5046648;28;20961;-44
2022/03/25 02:32:08;;;;;;;16.40;12.13;;;14.40;37.00;;;;;;5049602;28;20496;-45
2022/03/25 02:34:34;;;;;;;13.60;12.13;;;14.40;36.90;;;;;;5055798;28;20996;-44
2022/03/25 02:37:01;;;;;;;15.00;11.80;;;14.40;37.10;;;;;;5050645;28;20208;-44
2022/03/25 02:39:28;;;;;;;12.87;11.30;;;14.40;37.10;;;;;;5044761;28;20209;-43
2022/03/25 02:41:53;;;;;;;15.20;10.90;;;14.30;37.30;;;;;;5046901;28;20820;-44
2022/03/25 02:44:19;;;;;;;14.47;11.80;;;14.30;37.50;;;;;;5048580;28;20447;-45
2022/03/25 02:46:44;;;;;;;12.70;11.40;;;14.20;37.60;;;;;;5047886;28;20192;-43
2022/03/25 02:49:11;;;;;;;13.53;10.80;;;14.20;37.90;;;;;;5040549;28;20663;-44
2022/03/25 02:51:37;;;;;;;18.50;12.30;;;14.00;38.30;;;;;;5046767;28;20197;-45
2022/03/25 02:54:03;;;;;;;11.70;10.47;;;13.90;38.00;;;;;;5046293;28;20494;-43
2022/03/25 02:56:28;;;;;;;14.70;12.70;;;13.90;38.00;;;;;;5044948;28;20208;-45
2022/03/25 02:58:54;;;;;;;14.97;12.00;;;14.00;37.80;;;;;;5048536;28;20196;-46
2022/03/25 03:01:20;;;;;;;15.90;12.87;;;14.00;37.50;;;;;;5047894;28;20192;-44
2022/03/25 03:03:46;;;;;;;15.23;11.30;;;14.00;37.50;;;;;;5053118;28;20204;-44
2022/03/25 03:06:12;;;;;;;13.00;10.57;;;14.00;37.80;;;;;;5049516;28;20431;-43
2022/03/25 03:08:37;;;;;;;13.33;11.80;;;14.00;37.80;;;;;;5049129;28;20252;-45
2022/03/25 03:11:04;;;;;;;14.53;11.73;;;14.10;37.60;;;;;;5046045;28;20556;-44
2022/03/25 03:13:30;;;;;;;15.83;12.40;;;14.10;37.50;;;;;;5047063;28;20659;-43
2022/03/25 03:15:55;;;;;;;18.90;12.60;;;14.10;37.60;;;;;;5042883;28;20450;-44
2022/03/25 03:18:21;;;;;;;14.57;11.83;;;14.10;37.50;;;;;;5044442;28;21056;-45
2022/03/25 03:20:47;;;;;;;15.87;13.03;;;14.10;37.50;;;;;;5044181;28;20192;-43
2022/03/25 03:23:13;;;;;;;13.70;11.87;;;14.10;37.50;;;;;;5040743;28;20244;-43
2022/03/25 03:25:39;;;;;;;13.73;12.33;;;14.10;37.40;;;;;;5042915;28;20185;-43
2022/03/25 03:28:05;;;;;;;14.37;12.13;;;14.00;37.00;;;;;;5042122;28;21046;-44
2022/03/25 03:30:31;;;;;;;14.93;12.00;;;13.90;37.00;;;;;;5041242;28;20196;-45
2022/03/25 03:32:58;;;;;;;15.40;13.10;;;13.80;37.30;;;;;;5042495;28;20200;-47
2022/03/25 03:35:27;;;;;;;16.67;12.57;;;13.70;37.70;;;;;;5041907;28;20505;-44
2022/03/25 03:37:54;;;;;;;16.43;12.70;;;13.70;37.80;;;;;;5043181;28;20439;-44
2022/03/25 03:40:20;;;;;;;16.33;13.33;;;13.60;38.10;;;;;;5039028;28;20439;-44
2022/03/25 03:42:46;;;;;;;17.57;13.60;;;13.60;37.90;;;;;;5042116;28;20858;-43
2022/03/25 03:45:13;;;;;;;13.73;12.23;;;13.60;38.00;;;;;;5041857;28;20531;-43
2022/03/25 03:47:41;;;;;;;18.07;12.50;;;13.60;38.00;;;;;;5044309;28;20826;-44
2022/03/25 03:50:11;;;;;;;15.10;12.83;;;13.50;37.70;;;;;;5041385;28;20482;-44
2022/03/25 03:52:37;;;;;;;16.83;13.50;;;13.30;37.80;;;;;;5048054;28;20445;-45
2022/03/25 03:55:04;;;;;;;18.00;12.07;;;13.10;38.30;;;;;;5042517;28;20479;-43
2022/03/25 03:57:30;;;;;;;14.70;12.77;;;12.80;38.70;;;;;;5040524;28;20576;-48
2022/03/25 03:59:57;;;;;;;17.90;13.67;;;12.40;39.60;;;;;;5046391;28;20476;-44
2022/03/25 04:02:22;;;;;;;17.30;13.03;;;12.20;40.10;;;;;;5040932;28;20454;-45
2022/03/25 04:04:48;;;;;;;15.07;13.03;;;11.90;40.60;;;;;;5041469;28;20801;-44
2022/03/25 04:07:15;;;;;;;18.67;13.20;;;11.80;40.90;;;;;;5041627;28;20184;-44
2022/03/25 04:09:41;;;;;;;15.77;12.23;;;11.50;41.50;;;;;;5044531;28;20533;-44
2022/03/25 04:12:09;;;;;;;17.83;12.97;;;11.60;41.70;;;;;;5046983;28;20455;-45
2022/03/25 04:14:35;;;;;;;15.37;12.87;;;11.40;41.90;;;;;;5042468;28;20494;-44
2022/03/25 04:17:01;;;;;;;16.03;12.00;;;11.30;42.00;;;;;;5040936;28;20829;-44
2022/03/25 04:19:27;;;;;;;16.50;12.73;;;11.20;42.00;;;;;;5042535;28;20456;-44
2022/03/25 04:21:52;;;;;;;21.37;13.23;;;11.20;42.10;;;;;;5044046;28;20803;-45
2022/03/25 04:24:18;;;;;;;19.47;13.80;;;11.30;42.20;;;;;;5050625;28;20228;-45
2022/03/25 04:26:44;;;;;;;20.87;14.27;;;11.20;42.30;;;;;;5044913;28;20193;-44
2022/03/25 04:29:09;;;;;;;15.77;12.63;;;11.10;42.50;;;;;;5049005;28;20188;-44
2022/03/25 04:31:35;;;;;;;18.43;12.30;;;11.00;42.60;;;;;;5052018;28;20564;-44
2022/03/25 04:34:00;;;;;;;17.00;12.40;;;10.70;43.30;;;;;;5041595;28;20354;-44
2022/03/25 04:36:26;;;;;;;17.73;13.80;;;10.40;43.80;;;;;;5047967;28;20199;-47
2022/03/25 04:38:51;;;;;;;17.33;12.60;;;10.50;43.90;;;;;;5051393;28;20200;-44
2022/03/25 04:41:17;;;;;;;17.07;12.90;;;10.50;43.90;;;;;;5050200;28;20201;-44
2022/03/25 04:43:43;;;;;;;18.27;13.70;;;10.30;43.90;;;;;;5048546;28;20197;-45
2022/03/25 04:46:09;;;;;;;18.07;13.47;;;10.30;44.10;;;;;;5047036;28;20447;-45
2022/03/25 04:48:36;;;;;;;18.67;13.17;;;10.20;44.40;;;;;;5054108;28;20228;-44
2022/03/25 04:51:02;;;;;;;20.63;13.30;;;10.00;44.70;;;;;;5041784;28;20501;-43
2022/03/25 04:53:28;;;;;;;18.53;13.70;;;9.90;45.80;;;;;;5045357;28;20478;-44
2022/03/25 04:55:53;;;;;;;16.17;13.13;;;9.90;46.00;;;;;;5047241;28;20280;-44
2022/03/25 04:58:19;;;;;;;18.67;13.00;;;9.90;46.30;;;;;;5050384;28;20192;-44
2022/03/25 05:00:46;;;;;;;14.50;11.63;;;9.70;46.60;;;;;;5051421;28;20201;-43
2022/03/25 05:03:11;;;;;;;18.87;12.90;;;9.60;47.00;;;;;;5050622;28;20431;-43
2022/03/25 05:05:37;;;;;;;17.50;12.73;;;9.40;47.30;;;;;;5051572;28;20937;-45
2022/03/25 05:08:03;;;;;;;20.47;14.00;;;9.40;47.30;;;;;;5047664;28;20200;-43
2022/03/25 05:10:29;;;;;;;18.20;14.17;;;9.30;47.50;;;;;;5054300;28;20196;-43
2022/03/25 05:12:55;;;;;;;18.93;15.63;;;9.10;47.90;;;;;;5049672;28;20443;-43
2022/03/25 05:15:20;;;;;;;19.87;14.50;;;8.90;48.60;;;;;;5045574;28;20679;-44
2022/03/25 05:17:48;;;;;;;21.57;14.60;;;8.80;49.10;;;;;;5049391;28;20809;-43
2022/03/25 05:20:15;;;;;;;20.13;13.70;;;8.70;49.40;;;;;;5048114;28;20189;-44
2022/03/25 05:22:42;;;;;;;19.50;14.30;;;8.80;49.30;;;;;;5045013;28;20462;-44
2022/03/25 05:25:08;;;;;;;22.00;14.10;;;8.70;49.40;;;;;;5044976;28;20473;-43
2022/03/25 05:27:51;;;;;;;17.60;13.80;;;8.60;49.70;;;;;;5049763;28;20439;-43
2022/03/25 05:30:24;;;;;;;19.77;13.90;;;8.60;49.90;;;;;;5038136;28;20483;-45
2022/03/25 05:32:50;;;;;;;20.57;12.83;;;8.40;50.10;;;;;;5045579;28;20473;-45
2022/03/25 05:35:17;;;;;;;15.30;12.67;;;8.60;49.80;;;;;;5049406;28;20475;-43
2022/03/25 05:37:43;;;;;;;16.90;13.07;;;8.60;49.70;;;;;;5050336;28;20443;-44
2022/03/25 05:40:10;;;;;;;16.73;13.33;;;8.60;49.60;;;;;;5047523;28;20435;-44
2022/03/25 05:42:36;;;;;;;17.60;12.83;;;8.70;49.50;;;;;;5051553;28;20200;-45
2022/03/25 05:45:04;;;;;;;18.70;12.97;;;8.70;49.40;;;;;;5050947;28;20542;-44
2022/03/25 05:47:29;;;;;;;24.50;14.33;;;8.70;49.20;;;;;;5048979;28;20493;-44
2022/03/25 05:49:55;;;;;;;22.00;12.93;;;8.60;49.20;;;;;;5047606;28;20891;-44
2022/03/25 05:52:20;;;;;;;17.33;14.00;;;8.40;49.80;;;;;;5050389;28;20219;-44
2022/03/25 05:54:46;;;;;;;17.27;12.87;;;8.50;50.00;;;;;;5050136;28;20643;-43
2022/03/25 05:57:12;;;;;;;21.23;14.00;;;8.70;49.70;;;;;;5051288;28;20539;-43
2022/03/25 05:59:37;;;;;;;17.53;13.40;;;8.70;49.50;;;;;;5051355;28;20220;-44
2022/03/25 06:02:03;;;;;;;16.83;13.87;;;8.50;49.80;;;;;;5046852;28;20608;-44
2022/03/25 06:04:29;;;;;;;19.30;13.30;;;8.70;49.70;;;;;;5049879;28;20227;-44
2022/03/25 06:06:54;;;;;;;19.73;13.87;;;9.00;49.20;;;;;;5048225;28;20521;-44
2022/03/25 06:09:20;;;;;;;18.90;14.57;;;9.10;48.90;;;;;;5048916;28;20203;-43
2022/03/25 06:11:46;;;;;;;19.30;13.90;;;8.90;49.00;;;;;;5050406;28;20648;-44
2022/03/25 06:14:12;;;;;;;17.50;11.47;;;9.10;49.30;;;;;;5042576;28;20240;-45
2022/03/25 06:16:39;;;;;;;19.60;12.83;;;9.40;50.40;;;;;;5043540;28;20934;-43
2022/03/25 06:19:05;;;;;;;19.27;14.00;;;9.80;49.90;;;;;;5053102;28;20188;-44
2022/03/25 06:21:30;;;;;;;18.27;13.27;;;10.00;48.10;;;;;;5048103;28;20481;-44
2022/03/25 06:23:56;;;;;;;26.33;16.33;;;10.40;47.70;;;;;;5049102;28;20589;-43
2022/03/25 06:26:21;;;;;;;19.53;13.43;;;10.70;46.70;;;;;;5048528;28;20635;-44
2022/03/25 06:28:47;;;;;;;18.07;14.60;;;11.00;45.50;;;;;;5041579;28;20259;-45
2022/03/25 06:31:13;;;;;;;20.23;15.20;;;11.30;45.00;;;;;;5046777;28;20271;-45
2022/03/25 06:33:39;;;;;;;17.90;14.20;;;11.60;44.20;;;;;;5047736;28;20208;-44
2022/03/25 06:36:07;;;;;;;19.23;14.77;;;11.80;43.50;;;;;;5049944;28;20280;-45
2022/03/25 06:38:33;;;;;;;19.53;15.23;;;12.00;43.00;;;;;;5044677;28;20489;-44
2022/03/25 06:41:01;;;;;;;19.77;14.43;;;12.30;42.60;;;;;;5048686;28;20443;-44
2022/03/25 06:43:27;;;;;;;18.80;14.50;;;12.40;42.20;;;;;;5049309;28;20489;-44
2022/03/25 06:45:53;;;;;;;23.03;15.43;;;12.50;41.90;;;;;;5049958;28;20443;-44
2022/03/25 06:48:18;;;;;;;17.53;13.27;;;12.50;41.60;;;;;;5048701;28;20189;-43
2022/03/25 06:50:44;;;;;;;19.57;14.77;;;12.50;41.60;;;;;;5049206;28;20271;-44
2022/03/25 06:53:10;;;;;;;18.77;14.20;;;12.80;41.20;;;;;;5049869;28;20204;-47
2022/03/25 06:55:36;;;;;;;21.03;15.77;;;12.90;40.90;;;;;;5048164;28;20200;-45
2022/03/25 06:58:02;;;;;;;19.40;15.10;;;13.00;40.70;;;;;;5050021;28;20577;-44
2022/03/25 07:00:29;;;;;;;24.10;14.83;;;13.10;40.50;;;;;;5049210;28;20446;-46
2022/03/25 07:02:55;;;;;;;19.80;14.53;;;12.90;40.50;;;;;;5050462;28;20923;-45
2022/03/25 07:05:21;;;;;;;18.80;14.60;;;12.90;41.20;;;;;;5049226;28;20438;-43
2022/03/25 07:07:47;;;;;;;16.60;13.43;;;13.10;40.70;;;;;;5050565;28;20439;-46
2022/03/25 07:10:14;;;;;;;20.00;14.83;;;12.90;41.10;;;;;;5048097;28;20470;-44
2022/03/25 07:12:42;;;;;;;17.20;13.43;;;13.20;40.80;;;;;;5050399;28;20989;-46
2022/03/25 07:15:08;;;;;;;19.60;14.40;;;13.60;40.40;;;;;;5049088;28;20612;-44
2022/03/25 07:17:37;;;;;;;18.23;15.93;;;13.80;39.70;;;;;;5050542;28;20431;-44
2022/03/25 07:20:03;;;;;;;18.43;14.50;;;14.20;39.10;;;;;;5048350;28;20868;-45
2022/03/25 07:22:29;;;;;;;18.67;15.70;;;14.40;38.50;;;;;;5049264;28;20993;-46
2022/03/25 07:24:55;;;;;;;24.10;15.40;;;14.70;38.20;;;;;;5047432;28;20470;-46
2022/03/25 07:27:20;;;;;;;21.03;16.10;;;14.80;37.80;;;;;;5052737;28;20196;-44
2022/03/25 07:29:46;;;;;;;18.70;16.27;;;15.00;37.70;;;;;;5054855;28;20202;-44
2022/03/25 07:32:11;;;;;;;20.10;15.43;;;15.20;37.70;;;;;;5048762;28;20209;-45
2022/03/25 07:34:38;;;;;;;21.03;15.03;;;15.30;37.30;;;;;;5049306;28;20283;-48
2022/03/25 07:37:04;;;;;;;20.93;17.60;;;15.60;37.20;;;;;;5048872;28;20569;-44
2022/03/25 07:39:31;;;;;;;19.50;16.03;;;15.80;37.10;;;;;;5048836;28;20431;-45
2022/03/25 07:41:56;;;;;;;19.83;15.50;;;15.90;36.60;;;;;;5049579;28;20895;-44
2022/03/25 07:44:22;;;;;;;21.77;16.87;;;16.10;36.30;;;;;;5045899;28;20435;-44
2022/03/25 07:46:49;;;;;;;20.27;15.80;;;16.30;35.90;;;;;;5048750;28;20192;-46
2022/03/25 07:49:15;;;;;;;19.50;15.93;;;16.40;35.70;;;;;;5048347;28;20443;-45
2022/03/25 07:51:41;;;;;;;26.07;19.03;;;16.40;35.70;;;;;;5044492;28;20980;-45
2022/03/25 07:54:06;;;;;;;21.33;16.93;;;16.60;35.50;;;;;;5047449;28;20482;-44
2022/03/25 07:56:32;;;;;;;24.30;16.87;;;16.50;35.00;;;;;;5049836;28;20853;-43
2022/03/25 07:58:59;;;;;;;21.17;17.20;;;16.60;35.20;;;;;;5046042;28;20184;-42
2022/03/25 08:01:26;;;;;;;20.93;17.53;;;16.70;35.10;;;;;;5036822;28;20192;-46
2022/03/25 08:03:51;;;;;;;22.43;17.90;;;16.80;34.70;;;;;;5041611;28;20489;-43
2022/03/25 08:06:18;;;;;;;27.53;18.03;;;16.90;34.70;;;;;;5046369;28;20480;-43
2022/03/25 08:08:47;;;;;;;24.07;17.83;;;16.90;34.60;;;;;;5046595;28;20532;-43
2022/03/25 08:11:13;;;;;;;27.07;19.47;;;17.00;34.30;;;;;;5048309;28;20220;-43
2022/03/25 08:13:39;;;;;;;24.20;18.47;;;17.00;33.90;;;;;;5047087;28;20478;-44
2022/03/25 08:16:04;;;;;;;21.37;17.27;;;17.10;33.70;;;;;;5049091;28;20435;-43
2022/03/25 08:18:30;;;;;;;25.43;18.73;;;17.00;34.10;;;;;;5053777;28;20199;-44
2022/03/25 08:20:57;;;;;;;23.30;18.20;;;16.90;33.80;;;;;;5051463;28;20201;-44
2022/03/25 08:28:54;;;;;;;25.90;18.77;;;17.20;33.90;;;;;;5033404;28;20476;-43
2022/03/25 08:31:19;;;;;;;31.03;18.97;;;17.10;33.60;;;;;;5024367;28;20447;-43
2022/03/25 08:33:45;;;;;;;24.03;19.17;;;17.00;34.20;;;;;;5026293;28;20843;-44
2022/03/25 08:36:11;;;;;;;25.13;19.00;;;17.10;34.20;;;;;;5027533;28;20201;-43
2022/03/25 08:38:37;;;;;;;25.43;19.00;;;17.20;33.60;;;;;;5025277;28;20448;-43
2022/03/25 08:41:04;;;;;;;24.60;18.70;;;17.30;33.50;;;;;;5026014;28;20448;-50
2022/03/25 08:43:30;;;;;;;25.07;19.37;;;17.50;33.50;;;;;;5028394;28;20510;-43
2022/03/25 08:45:56;;;;;;;28.30;19.70;;;17.50;33.10;;;;;;5026624;28;20492;-43
2022/03/25 08:48:22;;;;;;;31.77;19.57;;;17.70;33.10;;;;;;5019330;28;20208;-46
2022/03/25 08:50:47;;;;;;;23.73;18.53;;;17.80;32.80;;;;;;5026858;28;20798;-47
2022/03/25 08:53:13;;;;;;;23.17;19.03;;;17.90;33.20;;;;;;5027791;28;20200;-48
2022/03/25 08:55:39;;;;;;;26.43;20.73;;;17.90;33.00;;;;;;5027213;28;20279;-46
2022/03/25 08:58:05;;;;;;;24.80;20.30;;;18.10;32.90;;;;;;5025985;28;20193;-45
2022/03/25 09:00:30;;;;;;;27.77;19.50;;;18.30;32.80;;;;;;5028789;28;20193;-45
2022/03/25 09:02:57;;;;;;;25.33;19.87;;;18.50;32.60;;;;;;5027972;28;20450;-45
2022/03/25 09:05:23;;;;;;;24.27;18.97;;;18.70;32.80;;;;;;5029075;28;20216;-44
2022/03/25 09:07:49;;;;;;;28.70;20.03;;;18.80;33.00;;;;;;5034789;28;20435;-48
2022/03/25 09:10:15;;;;;;;25.90;20.60;;;19.00;32.20;;;;;;5029894;28;20692;-45
2022/03/25 09:12:42;;;;;;;24.10;19.50;;;19.00;31.80;;;;;;5025566;28;20232;-46
2022/03/25 09:15:09;;;;;;;22.73;19.27;;;19.10;32.20;;;;;;5030392;28;20528;-46
2022/03/25 09:17:35;;;;;;;26.43;20.60;;;19.20;32.60;;;;;;5043281;28;20435;-44
2022/03/25 09:20:05;;;;;;;26.27;20.03;;;19.50;31.70;;;;;;5038253;28;20444;-44
2022/03/25 09:22:32;;;;;;;30.30;21.63;;;19.60;31.00;;;;;;5025770;28;20765;-45
2022/03/25 09:24:58;;;;;;;25.63;19.27;;;19.90;30.90;;;;;;5049742;28;20470;-45
2022/03/25 09:27:24;;;;;;;25.97;19.80;;;20.00;31.00;;;;;;5050011;28;20431;-47
2022/03/25 09:29:50;;;;;;;33.27;22.33;;;20.20;30.80;;;;;;5050015;28;20447;-44
2022/03/25 09:32:16;;;;;;;28.77;22.03;;;20.30;30.20;;;;;;5051281;28;20446;-46
2022/03/25 09:37:25;;;;;;;32.97;23.90;;;20.70;29.90;;;;;;5051193;28;20199;-46
2022/03/25 09:39:52;;;;;;;29.27;22.37;;;20.70;29.10;;;;;;5050398;28;20431;-43
2022/03/25 09:42:19;;;;;;;31.90;25.60;;;20.80;27.90;;;;;;5050466;28;20250;-45
2022/03/25 09:44:46;;;;;;;31.57;22.33;;;21.00;27.00;;;;;;5049875;28;20941;-42
2022/03/25 09:47:14;;;;;;;33.70;23.30;;;21.10;27.30;;;;;;5052260;28;20427;-45
2022/03/25 09:49:40;;;;;;;31.53;22.33;;;21.30;27.60;;;;;;5047372;28;20945;-43
2022/03/25 09:52:06;;;;;;;27.60;21.30;;;21.40;27.70;;;;;;5045890;28;20971;-45
2022/03/25 09:54:33;;;;;;;26.67;20.17;;;21.50;27.40;;;;;;5049943;28;20487;-44
2022/03/25 09:56:58;;;;;;;25.57;22.07;;;21.80;27.20;;;;;;5051560;28;20518;-46
2022/03/25 09:59:24;;;;;;;28.33;22.63;;;21.80;26.30;;;;;;5050136;28;20530;-46
2022/03/25 10:01:49;;;;;;;33.40;25.07;;;21.90;26.90;;;;;;5060069;28;20204;-43
2022/03/25 10:04:36;;;;;;;30.10;25.33;;;22.10;26.50;;;;;;5053728;28;20732;-43
2022/03/25 10:07:16;;;;;;;29.37;22.53;;;22.20;26.20;;;;;;5051446;28;20292;-43
2022/03/25 10:09:42;;;;;;;30.60;23.17;;;22.30;26.70;;;;;;5049156;28;20451;-42
2022/03/25 10:12:23;;;;;;;32.63;24.83;;;22.50;26.70;;;;;;5050378;28;20439;-45
2022/03/25 10:14:51;;;;;;;30.30;23.50;;;22.70;26.80;;;;;;5044502;28;20981;-43
2022/03/25 10:17:18;;;;;;;29.47;23.40;;;22.80;27.00;;;;;;5049390;28;20581;-42
2022/03/25 10:19:52;;;;;;;27.97;22.43;;;22.90;27.20;;;;;;5057867;28;20491;-43
2022/03/25 10:22:19;;;;;;;27.20;22.47;;;23.10;27.40;;;;;;5050020;28;20446;-42
2022/03/25 10:24:52;;;;;;;31.43;24.83;;;23.30;27.20;;;;;;5048768;28;20482;-43
2022/03/25 10:27:23;;;;;;;26.83;22.87;;;23.50;27.60;;;;;;5049124;28;20471;-44
2022/03/25 10:29:50;;;;;;;27.73;22.70;;;23.70;27.00;;;;;;5049367;28;20435;-45
2022/03/25 10:32:19;;;;;;;29.23;23.60;;;23.90;27.70;;;;;;5052346;28;20536;-45
2022/03/25 10:34:58;;;;;;;30.43;24.07;;;23.80;26.30;;;;;;5049466;28;20482;-44
2022/03/25 10:37:25;;;;;;;28.47;22.77;;;24.00;25.90;;;;;;5048715;28;20428;-43
2022/03/25 10:39:52;;;;;;;31.67;25.47;;;24.10;26.10;;;;;;5048726;28;20439;-43
2022/03/25 10:42:18;;;;;;;25.80;23.00;;;24.30;25.50;;;;;;5043386;28;20458;-42
2022/03/25 10:44:43;;;;;;;29.27;24.10;;;24.30;25.60;;;;;;5046916;28;20435;-42
2022/03/25 10:47:15;;;;;;;36.07;24.63;;;24.40;26.10;;;;;;5046907;28;20185;-44
2022/03/25 10:49:46;;;;;;;29.47;24.50;;;24.50;26.30;;;;;;5044588;28;20212;-43
2022/03/25 10:52:23;;;;;;;28.50;23.67;;;24.70;25.80;;;;;;5038340;28;20463;-43
2022/03/25 10:54:49;;;;;;;31.17;25.53;;;24.90;25.60;;;;;;5045755;28;20483;-43
2022/03/25 10:57:16;;;;;;;24.13;21.60;;;24.90;25.40;;;;;;5047940;28;20525;-43
2022/03/25 10:59:42;;;;;;;33.60;26.20;;;24.90;26.00;;;;;;5047138;28;20489;-43
2022/03/25 11:02:09;;;;;;;33.10;25.23;;;25.20;25.60;;;;;;5042768;28;20443;-42
2022/03/25 11:04:40;;;;;;;27.77;23.70;;;25.40;26.10;;;;;;5044903;28;20227;-43
2022/03/25 11:07:09;;;;;;;34.97;25.70;;;25.70;25.00;;;;;;5048921;28;20528;-43
2022/03/25 11:09:35;;;;;;;27.03;23.90;;;25.90;25.00;;;;;;5049219;28;20946;-44
2022/03/25 11:12:00;;;;;;;30.00;24.83;;;25.90;24.40;;;;;;5047626;28;20439;-43
2022/03/25 11:14:26;;;;;;;35.77;27.83;;;26.00;25.10;;;;;;5049110;28;20239;-42
2022/03/25 11:16:54;;;;;;;32.13;26.47;;;26.00;24.00;;;;;;5043870;28;20275;-43
2022/03/25 11:19:21;;;;;;;29.53;23.77;;;26.00;24.20;;;;;;5047122;28;20509;-43
2022/03/25 11:21:49;;;;;;;29.90;24.53;;;26.00;24.80;;;;;;5038556;28;20922;-42
2022/03/25 11:24:31;;;;;;;29.70;23.50;;;26.00;25.00;;;;;;5048303;28;20466;-48
2022/03/25 11:27:00;;;;;;;29.37;25.40;;;26.30;24.40;;;;;;5046876;28;20505;-43
2022/03/25 11:29:27;;;;;;;31.47;26.73;;;26.50;24.20;;;;;;5048051;28;20442;-44
2022/03/25 11:32:12;;;;;;;26.30;22.07;;;26.50;24.30;;;;;;5048301;28;20447;-43
2022/03/25 11:34:46;;;;;;;29.73;23.87;;;26.50;24.40;;;;;;5046795;28;20489;-43
2022/03/25 11:37:17;;;;;;;26.10;21.47;;;26.60;24.30;;;;;;5043463;28;20859;-45
2022/03/25 11:39:43;;;;;;;28.50;22.53;;;26.70;24.20;;;;;;5025130;28;20838;-43
2022/03/25 11:42:35;;;;;;;23.70;19.70;;;26.70;24.30;;;;;;5048388;28;20449;-42
2022/03/25 11:45:22;;;;;;;21.10;18.57;;;27.10;25.20;;;;;;5044720;28;20443;-44
2022/03/25 11:48:08;;;;;;;20.70;18.50;;;27.40;24.50;;;;;;5045712;28;20478;-44
2022/03/25 11:50:46;;;;;;;26.47;20.60;;;27.40;24.40;;;;;;5030993;28;20984;-43
2022/03/25 11:53:11;;;;;;;28.20;25.17;;;27.50;24.60;;;;;;5034967;28;20435;-42
2022/03/25 11:55:55;;;;;;;24.43;21.97;;;27.70;23.20;;;;;;5047861;28;20858;-43
2022/03/25 11:58:22;;;;;;;28.80;25.70;;;28.00;23.60;;;;;;5047734;28;20204;-42
2022/03/25 12:00:49;;;;;;;23.00;20.70;;;28.10;22.60;;;;;;5041681;28;20980;-43
2022/03/25 12:03:15;;;;;;;25.50;22.77;;;28.10;22.50;;;;;;5048158;28;20536;-42
2022/03/25 12:06:02;;;;;;;29.30;24.90;;;28.20;21.70;;;;;;5047816;28;20981;-47
2022/03/25 12:08:32;;;;;;;28.13;22.87;;;28.10;22.10;;;;;;5047196;28;20493;-47
2022/03/25 12:11:03;;;;;;;26.43;23.60;;;28.00;22.20;;;;;;5048024;28;20439;-48
2022/03/25 12:13:51;;;;;;;22.17;19.77;;;28.00;22.00;;;;;;5046311;28;20463;-45
2022/03/25 12:16:47;;;;;;;28.30;25.40;;;28.10;22.90;;;;;;5045555;28;20820;-48
2022/03/25 12:19:28;;;;;;;25.23;22.57;;;28.20;22.40;;;;;;5047974;28;20443;-46
2022/03/25 12:22:25;;;;;;;27.20;24.30;;;28.00;22.10;;;;;;5048620;28;20802;-47
2022/03/25 12:24:52;;;;;;;25.10;22.40;;;27.50;22.30;;;;;;5057687;28;20888;-48
2022/03/25 12:27:19;;;;;;;24.60;21.40;;;27.80;22.50;;;;;;5050361;28;20435;-43
2022/03/25 12:29:48;;;;;;;26.93;24.23;;;28.00;22.30;;;;;;5048507;28;20427;-45
2022/03/25 12:32:16;;;;;;;27.27;22.92;;;28.20;21.70;;;;;;5050415;28;20430;-47
2022/03/25 12:34:54;;;;;;;25.53;22.80;;;28.30;21.60;;;;;;5015779;28;20695;-43
2022/03/25 12:37:27;;;;;;;28.07;25.03;;;28.30;21.90;;;;;;5047677;28;20442;-47